Time;durP1;ratioP1;P1;durP2;ratioP2;P2;SDS_P1;SDS_P2;PMS_P1;PMS_P2;Temp;Humidity;BMP_temperature;BMP_pressure;BME280_temperature;BME280_humidity;BME280_pressure;Samples;Min_cycle;Max_cycle;Signal;HPM_P1;HPM_P2
2022/10/30 00:00:36;;;;;;;30.63;15.23;;;13.70;99.90;;;;;;5032304;28;20089;-90
2022/10/30 00:03:02;;;;;;;31.85;15.93;;;13.70;99.90;;;;;;5032511;28;20041;-84
2022/10/30 00:05:29;;;;;;;31.13;16.33;;;13.80;99.90;;;;;;5014614;28;20089;-89
2022/10/30 00:07:55;;;;;;;37.25;15.65;;;13.80;99.90;;;;;;5032598;28;20474;-89
2022/10/30 00:10:24;;;;;;;33.78;16.25;;;13.80;99.90;;;;;;5031899;28;20050;-84
2022/10/30 00:12:51;;;;;;;32.83;16.33;;;13.90;99.90;;;;;;5032208;28;20375;-81
2022/10/30 00:15:17;;;;;;;32.55;14.85;;;13.90;99.90;;;;;;5014804;28;20041;-82
2022/10/30 00:17:43;;;;;;;30.00;15.68;;;13.90;99.90;;;;;;5035696;28;20053;-89
2022/10/30 00:20:09;;;;;;;32.45;14.55;;;13.90;99.90;;;;;;5015538;28;20067;-87
2022/10/30 00:22:36;;;;;;;29.35;15.25;;;13.90;99.90;;;;;;5032574;28;20053;-81
2022/10/30 00:25:03;;;;;;;24.58;13.52;;;13.90;99.90;;;;;;5014447;28;20132;-82
2022/10/30 00:27:29;;;;;;;26.23;15.70;;;13.90;99.90;;;;;;5033099;28;20050;-83
2022/10/30 00:29:55;;;;;;;27.83;15.13;;;13.90;99.90;;;;;;5016605;28;20050;-86
2022/10/30 00:32:22;;;;;;;36.78;16.98;;;13.80;99.90;;;;;;5035566;28;20101;-89
2022/10/30 00:34:48;;;;;;;28.15;15.98;;;13.80;99.90;;;;;;5032499;28;20057;-87
2022/10/30 00:37:13;;;;;;;34.90;16.23;;;13.80;99.90;;;;;;5032279;28;20515;-89
2022/10/30 00:39:39;;;;;;;29.30;14.70;;;13.70;99.90;;;;;;5031194;28;20053;-87
2022/10/30 00:42:09;;;;;;;33.28;14.90;;;13.60;99.90;;;;;;5031548;28;20057;-83
2022/10/30 00:44:44;;;;;;;31.02;16.27;;;13.60;99.90;;;;;;5032898;28;20049;-90
2022/10/30 00:47:22;;;;;;;30.83;17.35;;;13.60;99.90;;;;;;5019119;28;20052;-89
2022/10/30 00:50:12;;;;;;;27.50;15.50;;;13.60;99.90;;;;;;5032609;28;20065;-88
2022/10/30 00:52:50;;;;;;;28.08;15.13;;;13.60;99.90;;;;;;5014183;28;20402;-86
2022/10/30 00:55:26;;;;;;;29.30;15.85;;;13.50;99.90;;;;;;5013462;28;20057;-87
2022/10/30 00:57:53;;;;;;;31.13;15.70;;;13.50;99.90;;;;;;5031159;28;20072;-87
2022/10/30 01:00:23;;;;;;;25.02;15.43;;;13.50;99.90;;;;;;5031246;28;20169;-84
2022/10/30 01:02:50;;;;;;;33.35;15.23;;;13.40;99.90;;;;;;5013089;28;20051;-87
2022/10/30 01:05:18;;;;;;;33.70;16.60;;;13.40;99.90;;;;;;4997206;28;20397;-88
2022/10/30 01:07:45;;;;;;;28.55;15.13;;;13.40;99.90;;;;;;5013835;28;20053;-91
2022/10/30 01:10:12;;;;;;;23.67;14.50;;;13.40;99.90;;;;;;5031531;28;20076;-82
2022/10/30 01:12:39;;;;;;;27.60;15.05;;;13.40;99.90;;;;;;5033791;28;20053;-92
2022/10/30 01:15:06;;;;;;;34.50;16.48;;;13.40;99.90;;;;;;5036027;28;20105;-84
2022/10/30 01:17:56;;;;;;;32.85;16.95;;;13.40;99.90;;;;;;5030970;28;20053;-84
2022/10/30 01:20:37;;;;;;;33.70;16.42;;;13.30;99.90;;;;;;5030651;28;20572;-82
2022/10/30 01:23:24;;;;;;;28.42;15.85;;;13.30;99.90;;;;;;5033699;28;20050;-89
2022/10/30 01:25:56;;;;;;;28.75;14.30;;;13.30;99.90;;;;;;5015879;28;20551;-89
2022/10/30 01:28:42;;;;;;;28.48;16.25;;;13.30;99.90;;;;;;5013027;28;20052;-88
2022/10/30 01:31:26;;;;;;;29.13;16.40;;;13.30;99.90;;;;;;5030514;28;20572;-89
2022/10/30 01:34:13;;;;;;;27.63;15.13;;;13.30;99.90;;;;;;5030599;28;20057;-87
2022/10/30 01:36:45;;;;;;;31.50;15.82;;;13.30;99.90;;;;;;5014005;28;20123;-82
2022/10/30 01:39:34;;;;;;;26.13;14.63;;;13.40;99.90;;;;;;5030922;28;20088;-82
2022/10/30 01:42:30;;;;;;;28.75;14.02;;;13.40;99.90;;;;;;5030784;28;20139;-90
2022/10/30 01:44:56;;;;;;;33.50;16.00;;;13.40;99.90;;;;;;5030778;28;20051;-87
2022/10/30 01:47:38;;;;;;;32.47;15.32;;;13.30;99.90;;;;;;5012839;28;20049;-82
2022/10/30 01:50:21;;;;;;;30.33;15.25;;;13.40;99.90;;;;;;5016136;28;20049;-86
2022/10/30 01:52:56;;;;;;;30.42;16.08;;;13.40;99.90;;;;;;5016949;28;20104;-90
2022/10/30 01:55:39;;;;;;;33.55;15.38;;;13.40;99.90;;;;;;5001579;28;20065;-83
2022/10/30 01:58:18;;;;;;;30.23;15.30;;;13.40;99.90;;;;;;5017049;28;20058;-90
2022/10/30 02:00:48;;;;;;;33.95;14.88;;;13.50;99.90;;;;;;5034935;28;20092;-89
2022/10/30 02:03:14;;;;;;;30.70;15.15;;;13.50;99.90;;;;;;5035131;28;20049;-88
2022/10/30 02:05:52;;;;;;;28.85;15.80;;;13.50;99.90;;;;;;5003165;28;20056;-88
2022/10/30 02:08:20;;;;;;;29.38;14.52;;;13.50;99.90;;;;;;5045021;28;20057;-86
2022/10/30 02:10:48;;;;;;;35.53;16.33;;;13.60;99.90;;;;;;5022753;28;20061;-90
2022/10/30 02:13:15;;;;;;;32.55;15.38;;;13.60;99.90;;;;;;5040487;28;20081;-82
2022/10/30 02:15:42;;;;;;;31.00;14.73;;;13.60;99.90;;;;;;5025808;28;20077;-86
2022/10/30 02:18:08;;;;;;;23.95;13.18;;;13.60;99.90;;;;;;5026638;28;20081;-86
2022/10/30 02:20:35;;;;;;;35.22;14.68;;;13.60;99.90;;;;;;5016927;28;20046;-87
2022/10/30 02:23:01;;;;;;;28.75;14.10;;;13.60;99.90;;;;;;5034831;28;20497;-84
2022/10/30 02:25:27;;;;;;;30.95;14.27;;;13.60;99.90;;;;;;5000059;28;20057;-82
2022/10/30 02:27:53;;;;;;;33.25;14.70;;;13.60;99.90;;;;;;5016191;28;20053;-81
2022/10/30 02:30:19;;;;;;;26.90;13.90;;;13.60;99.90;;;;;;5035049;28;20137;-89
2022/10/30 02:32:46;;;;;;;27.35;14.60;;;13.60;99.90;;;;;;5037243;28;20056;-90
2022/10/30 02:35:12;;;;;;;27.73;13.52;;;13.60;99.90;;;;;;5037687;28;20187;-85
2022/10/30 02:37:38;;;;;;;32.38;14.60;;;13.60;99.90;;;;;;5035037;28;20056;-86
2022/10/30 02:40:09;;;;;;;29.08;14.00;;;13.60;99.90;;;;;;5036712;28;20512;-87
2022/10/30 02:42:35;;;;;;;32.85;14.82;;;13.60;99.90;;;;;;5028000;28;20053;-85
2022/10/30 02:45:01;;;;;;;27.75;14.30;;;13.60;99.90;;;;;;5025740;28;20124;-86
2022/10/30 02:47:30;;;;;;;27.42;14.85;;;13.60;99.90;;;;;;5041029;28;20454;-87
2022/10/30 02:49:56;;;;;;;26.35;14.40;;;13.60;99.90;;;;;;5022643;28;20052;-81
2022/10/30 02:52:22;;;;;;;28.50;15.88;;;13.60;99.90;;;;;;5004769;28;20053;-83
2022/10/30 02:54:48;;;;;;;33.70;14.07;;;13.60;99.90;;;;;;5034807;28;20120;-85
2022/10/30 02:57:13;;;;;;;31.00;16.25;;;13.50;99.90;;;;;;5016827;28;20099;-83
2022/10/30 02:59:39;;;;;;;30.98;14.90;;;13.50;99.90;;;;;;5016407;28;20049;-81
2022/10/30 03:02:05;;;;;;;34.45;14.80;;;13.50;99.90;;;;;;5001898;28;20136;-81
2022/10/30 03:04:31;;;;;;;32.28;15.05;;;13.50;99.90;;;;;;5042495;28;20049;-84
2022/10/30 03:06:57;;;;;;;31.55;15.50;;;13.50;99.90;;;;;;5037971;28;20053;-87
2022/10/30 03:09:23;;;;;;;33.47;15.98;;;13.50;99.90;;;;;;5036087;28;20378;-82
2022/10/30 03:11:49;;;;;;;31.42;15.07;;;13.40;99.90;;;;;;5021340;28;20123;-86
2022/10/30 03:14:15;;;;;;;32.45;15.10;;;13.40;99.90;;;;;;5021190;28;20115;-87
2022/10/30 03:16:41;;;;;;;31.77;15.15;;;13.40;99.90;;;;;;5016938;28;20053;-83
2022/10/30 03:19:07;;;;;;;29.92;15.30;;;13.40;99.90;;;;;;5033979;28;20048;-84
2022/10/30 03:21:33;;;;;;;31.70;15.52;;;13.40;99.90;;;;;;5038409;28;20517;-87
2022/10/30 03:23:59;;;;;;;26.42;14.65;;;13.40;99.90;;;;;;5017783;28;20041;-82
2022/10/30 03:26:25;;;;;;;29.58;15.10;;;13.40;99.90;;;;;;5017018;28;20057;-83
2022/10/30 03:28:51;;;;;;;31.90;16.05;;;13.40;99.90;;;;;;5018441;28;20049;-83
2022/10/30 03:31:18;;;;;;;40.25;15.23;;;13.40;99.90;;;;;;5019540;28;20041;-81
2022/10/30 03:33:44;;;;;;;30.20;14.85;;;13.40;99.90;;;;;;5021026;28;20049;-84
2022/10/30 03:36:13;;;;;;;34.03;15.88;;;13.40;99.90;;;;;;5022944;28;20518;-85
2022/10/30 03:38:39;;;;;;;31.52;15.38;;;13.40;99.90;;;;;;5037607;28;20425;-82
2022/10/30 03:41:06;;;;;;;25.67;14.20;;;13.40;99.90;;;;;;5038711;28;20128;-82
2022/10/30 03:43:32;;;;;;;24.83;14.25;;;13.40;99.90;;;;;;5033882;28;20045;-83
2022/10/30 03:45:58;;;;;;;32.92;16.17;;;13.40;99.90;;;;;;5015415;28;20088;-81
2022/10/30 03:48:26;;;;;;;28.10;15.30;;;13.30;99.90;;;;;;5015408;28;20049;-81
2022/10/30 03:50:53;;;;;;;35.40;15.60;;;13.30;99.90;;;;;;5015225;28;20150;-85
2022/10/30 03:53:21;;;;;;;28.83;14.50;;;13.30;99.90;;;;;;5035879;28;20053;-84
2022/10/30 03:55:47;;;;;;;29.90;15.25;;;13.30;99.90;;;;;;5041045;28;20054;-82
2022/10/30 03:58:13;;;;;;;32.83;15.70;;;13.30;99.90;;;;;;5036674;28;20056;-83
2022/10/30 04:00:40;;;;;;;36.38;14.85;;;13.30;99.90;;;;;;5034300;28;20110;-86
2022/10/30 04:03:07;;;;;;;29.15;14.35;;;13.40;99.90;;;;;;5033011;28;20129;-85
2022/10/30 04:05:34;;;;;;;39.10;17.15;;;13.30;99.90;;;;;;5014444;28;20537;-85
2022/10/30 04:08:02;;;;;;;41.00;17.55;;;13.40;99.90;;;;;;5036049;28;20045;-86
2022/10/30 04:10:28;;;;;;;32.42;15.90;;;13.30;99.90;;;;;;5035313;28;20123;-88
2022/10/30 04:13:01;;;;;;;31.25;15.20;;;13.40;99.90;;;;;;5032414;28;20052;-86
2022/10/30 04:15:28;;;;;;;30.33;15.45;;;13.40;99.90;;;;;;5014570;28;20826;-88
2022/10/30 04:17:54;;;;;;;31.05;15.20;;;13.30;99.90;;;;;;4998126;28;20076;-88
2022/10/30 04:20:21;;;;;;;36.78;17.27;;;13.30;99.90;;;;;;5031888;28;20107;-85
2022/10/30 04:22:47;;;;;;;28.67;15.48;;;13.30;99.90;;;;;;5032603;28;20801;-84
2022/10/30 04:25:13;;;;;;;31.50;15.13;;;13.30;99.90;;;;;;5014383;28;20049;-89
2022/10/30 04:27:41;;;;;;;30.67;16.80;;;13.30;99.90;;;;;;5032243;28;20049;-85
2022/10/30 04:30:09;;;;;;;30.23;15.95;;;13.30;99.90;;;;;;5015400;28;20206;-87
2022/10/30 04:32:35;;;;;;;28.92;15.68;;;13.30;99.90;;;;;;5031801;28;20045;-87
2022/10/30 04:35:02;;;;;;;35.17;16.05;;;13.30;99.90;;;;;;5031697;28;20404;-84
2022/10/30 04:37:28;;;;;;;38.00;17.55;;;13.30;99.90;;;;;;5031416;28;20049;-84
2022/10/30 04:39:54;;;;;;;34.08;16.33;;;13.30;99.90;;;;;;5031183;28;20079;-89
2022/10/30 04:42:20;;;;;;;36.85;15.15;;;13.40;99.90;;;;;;5033128;28;20049;-85
2022/10/30 04:44:46;;;;;;;36.72;17.00;;;13.40;99.90;;;;;;5032696;28;20057;-87
2022/10/30 04:47:12;;;;;;;34.53;16.63;;;13.40;99.90;;;;;;5032221;28;20140;-82
2022/10/30 04:49:38;;;;;;;33.58;17.00;;;13.40;99.90;;;;;;5014031;28;20489;-82
2022/10/30 04:52:06;;;;;;;34.42;17.25;;;13.40;99.90;;;;;;5014538;28;20061;-85
2022/10/30 04:54:32;;;;;;;32.28;15.98;;;13.40;99.90;;;;;;5013953;28;20397;-82
2022/10/30 04:56:58;;;;;;;39.92;17.85;;;13.40;99.90;;;;;;5031159;28;20058;-85
2022/10/30 04:59:24;;;;;;;36.63;17.50;;;13.40;99.90;;;;;;5016113;28;20053;-88
2022/10/30 05:01:50;;;;;;;38.10;15.80;;;13.40;99.90;;;;;;5034532;28;20447;-87
2022/10/30 05:04:16;;;;;;;28.65;15.90;;;13.40;99.90;;;;;;5036579;28;20513;-89
2022/10/30 05:06:42;;;;;;;33.20;17.45;;;13.40;99.90;;;;;;5016325;28;20489;-84
2022/10/30 05:09:07;;;;;;;40.30;17.80;;;13.40;99.90;;;;;;5031377;28;20133;-85
2022/10/30 05:11:33;;;;;;;43.95;16.60;;;13.40;99.90;;;;;;5031059;28;20045;-84
2022/10/30 05:13:59;;;;;;;31.60;17.55;;;13.40;99.90;;;;;;5013479;28;20088;-89
2022/10/30 05:16:25;;;;;;;33.70;17.63;;;13.30;99.90;;;;;;5031632;28;20116;-89
2022/10/30 05:18:51;;;;;;;32.70;16.80;;;13.30;99.90;;;;;;5013109;28;20412;-81
2022/10/30 05:21:17;;;;;;;36.70;17.50;;;13.30;99.90;;;;;;5031388;28;20164;-83
2022/10/30 05:23:43;;;;;;;36.72;18.63;;;13.30;99.90;;;;;;5014335;28;20049;-82
2022/10/30 05:26:09;;;;;;;36.75;17.95;;;13.20;99.90;;;;;;5035123;28;20049;-88
2022/10/30 05:28:35;;;;;;;36.72;18.08;;;13.20;99.90;;;;;;5035774;28;20126;-89
2022/10/30 05:31:01;;;;;;;40.63;19.25;;;13.20;99.90;;;;;;5017196;28;20409;-90
2022/10/30 05:33:26;;;;;;;37.40;18.05;;;13.20;99.90;;;;;;5017552;28;20147;-84
2022/10/30 05:35:52;;;;;;;37.08;18.88;;;13.10;99.90;;;;;;5034752;28;20057;-90
2022/10/30 05:38:18;;;;;;;38.47;17.33;;;13.10;99.90;;;;;;5034693;28;20049;-81
2022/10/30 05:40:45;;;;;;;33.75;17.70;;;13.00;99.90;;;;;;5017250;28;20052;-83
2022/10/30 05:43:11;;;;;;;38.17;18.63;;;13.00;99.90;;;;;;5016824;28;20085;-82
2022/10/30 05:45:37;;;;;;;35.92;19.70;;;13.00;99.90;;;;;;5016958;28;20084;-83
2022/10/30 05:48:05;;;;;;;36.08;19.60;;;12.90;99.90;;;;;;5038340;28;20046;-81
2022/10/30 05:50:31;;;;;;;35.05;18.02;;;12.90;99.90;;;;;;5020912;28;20208;-86
2022/10/30 05:52:59;;;;;;;36.47;18.48;;;12.80;99.90;;;;;;5021435;28;20049;-85
2022/10/30 05:55:26;;;;;;;40.47;20.35;;;12.80;99.90;;;;;;5036538;28;20053;-85
2022/10/30 05:57:59;;;;;;;35.67;19.38;;;12.80;99.90;;;;;;5037617;28;20085;-82
2022/10/30 06:00:27;;;;;;;41.13;19.88;;;12.80;99.90;;;;;;5034758;28;20586;-83
2022/10/30 06:03:13;;;;;;;39.20;18.60;;;12.80;99.90;;;;;;5016484;28;20057;-82
2022/10/30 06:05:39;;;;;;;40.63;19.38;;;12.70;99.90;;;;;;5016168;28;20091;-86
2022/10/30 06:08:06;;;;;;;35.67;18.58;;;12.70;99.90;;;;;;5016454;28;20135;-84
2022/10/30 06:10:33;;;;;;;39.15;20.58;;;12.70;99.90;;;;;;5034786;28;20045;-88
2022/10/30 06:13:01;;;;;;;39.15;19.55;;;12.70;99.90;;;;;;5020464;28;20057;-91
2022/10/30 06:15:28;;;;;;;43.95;20.90;;;12.70;99.90;;;;;;5018092;28;20053;-83
2022/10/30 06:17:54;;;;;;;40.00;20.33;;;12.70;99.90;;;;;;5016421;28;20417;-82
2022/10/30 06:20:22;;;;;;;45.22;20.70;;;12.60;99.90;;;;;;5016171;28;20104;-82
2022/10/30 06:23:00;;;;;;;48.03;22.63;;;12.60;99.90;;;;;;5033589;28;20092;-83
2022/10/30 06:25:28;;;;;;;40.03;20.15;;;12.60;99.90;;;;;;5000287;28;20061;-83
2022/10/30 06:27:54;;;;;;;37.22;20.83;;;12.60;99.90;;;;;;5033678;28;20048;-84
2022/10/30 06:30:20;;;;;;;44.33;21.95;;;12.50;99.90;;;;;;5016625;28;20133;-83
2022/10/30 06:32:47;;;;;;;45.30;21.30;;;12.50;99.90;;;;;;5018105;28;20045;-86
2022/10/30 06:35:13;;;;;;;45.75;23.20;;;12.50;99.90;;;;;;5016309;28;20092;-84
2022/10/30 06:37:45;;;;;;;44.15;21.50;;;12.50;99.90;;;;;;5016640;28;20406;-89
2022/10/30 06:40:11;;;;;;;38.97;20.33;;;12.50;99.90;;;;;;5036522;28;20103;-84
2022/10/30 06:42:49;;;;;;;36.70;20.90;;;12.40;99.90;;;;;;5036964;28;20058;-84
2022/10/30 06:45:16;;;;;;;39.40;21.88;;;12.40;99.90;;;;;;5017175;28;20144;-83
2022/10/30 06:47:42;;;;;;;50.92;22.30;;;12.40;99.90;;;;;;5033842;28;20493;-83
2022/10/30 06:50:11;;;;;;;37.35;20.67;;;12.40;99.90;;;;;;5033975;28;20061;-82
2022/10/30 06:52:38;;;;;;;49.85;24.85;;;12.40;99.90;;;;;;5002210;28;20060;-83
2022/10/30 06:55:04;;;;;;;45.85;21.20;;;12.40;99.90;;;;;;5034996;28;20068;-83
2022/10/30 06:57:30;;;;;;;42.83;21.30;;;12.40;99.90;;;;;;5035426;28;20041;-84
2022/10/30 06:59:56;;;;;;;46.08;21.77;;;12.50;99.90;;;;;;5025973;28;20060;-86
2022/10/30 07:02:25;;;;;;;37.58;20.58;;;12.50;99.90;;;;;;5044279;28;20048;-83
2022/10/30 07:04:51;;;;;;;44.95;21.95;;;12.50;99.90;;;;;;5026279;28;20396;-83
2022/10/30 07:07:22;;;;;;;39.08;21.70;;;12.50;99.90;;;;;;5008058;28;20141;-84
2022/10/30 07:09:48;;;;;;;47.63;22.20;;;12.50;99.90;;;;;;5024352;28;20497;-81
2022/10/30 07:12:14;;;;;;;40.67;22.48;;;12.60;99.90;;;;;;5043198;28;20046;-81
2022/10/30 07:14:41;;;;;;;44.92;21.33;;;12.60;99.90;;;;;;5025561;28;20053;-83
2022/10/30 07:17:09;;;;;;;42.22;20.90;;;12.60;99.90;;;;;;5040345;28;20096;-83
2022/10/30 07:19:38;;;;;;;38.63;20.83;;;12.60;99.90;;;;;;5023640;28;20104;-90
2022/10/30 07:22:04;;;;;;;42.25;21.40;;;12.60;99.90;;;;;;5041260;28;20041;-92
2022/10/30 07:24:34;;;;;;;45.53;23.13;;;12.60;99.90;;;;;;5025751;28;20053;-82
2022/10/30 07:27:00;;;;;;;45.38;22.58;;;12.70;99.90;;;;;;5010265;28;20048;-85
2022/10/30 07:29:26;;;;;;;49.42;22.83;;;12.70;99.90;;;;;;5041866;28;20030;-87
2022/10/30 07:31:52;;;;;;;40.63;21.77;;;12.70;99.90;;;;;;5020697;28;20106;-83
2022/10/30 07:34:20;;;;;;;45.50;22.45;;;12.70;99.90;;;;;;5022003;28;20056;-82
2022/10/30 07:36:48;;;;;;;40.33;21.63;;;12.70;99.90;;;;;;5040479;28;20041;-84
2022/10/30 07:39:15;;;;;;;47.95;22.38;;;12.70;99.90;;;;;;5039168;28;20049;-89
2022/10/30 07:41:44;;;;;;;38.40;20.08;;;12.80;99.90;;;;;;5040614;28;20132;-90
2022/10/30 07:44:09;;;;;;;43.30;22.13;;;12.80;99.90;;;;;;5043493;28;20037;-89
2022/10/30 07:46:37;;;;;;;37.75;20.02;;;12.80;99.90;;;;;;5021477;28;20068;-81
2022/10/30 07:49:05;;;;;;;41.58;20.17;;;12.90;99.90;;;;;;5006978;28;20110;-82
2022/10/30 07:51:32;;;;;;;43.33;21.70;;;12.90;99.90;;;;;;5022583;28;20152;-83
2022/10/30 07:53:59;;;;;;;41.90;22.33;;;13.00;99.90;;;;;;5020981;28;20053;-88
2022/10/30 07:56:26;;;;;;;45.28;21.20;;;13.10;99.90;;;;;;5038826;28;20046;-87
2022/10/30 07:58:53;;;;;;;35.88;19.35;;;13.20;99.90;;;;;;5039822;28;20063;-91
2022/10/30 08:01:22;;;;;;;36.88;21.23;;;13.20;99.90;;;;;;5024377;28;20053;-91
2022/10/30 08:03:49;;;;;;;39.17;19.98;;;13.30;99.90;;;;;;5040275;28;20104;-83
2022/10/30 08:06:15;;;;;;;43.22;21.20;;;13.40;99.90;;;;;;5039682;28;20490;-86
2022/10/30 08:08:42;;;;;;;39.15;20.75;;;13.40;99.90;;;;;;5040230;28;20073;-85
2022/10/30 08:11:09;;;;;;;39.53;20.15;;;13.50;99.90;;;;;;5010366;28;20056;-89
2022/10/30 08:13:34;;;;;;;38.15;21.95;;;13.60;99.90;;;;;;5033920;28;20152;-85
2022/10/30 08:16:00;;;;;;;33.97;19.35;;;13.60;99.90;;;;;;5031895;28;20056;-84
2022/10/30 08:18:26;;;;;;;35.83;19.38;;;13.70;99.90;;;;;;5035654;28;20052;-90
2022/10/30 08:20:52;;;;;;;35.47;20.02;;;13.80;99.90;;;;;;5040350;28;20466;-81
2022/10/30 08:23:20;;;;;;;34.60;19.40;;;13.80;99.90;;;;;;5033153;28;20087;-85
2022/10/30 08:25:46;;;;;;;33.90;18.58;;;13.90;99.90;;;;;;5033405;28;20089;-83
2022/10/30 08:28:13;;;;;;;37.58;19.45;;;14.00;99.90;;;;;;5016000;28;20232;-83
2022/10/30 08:30:39;;;;;;;32.67;18.60;;;14.10;99.90;;;;;;5034192;28;20042;-82
2022/10/30 08:33:09;;;;;;;42.25;19.35;;;14.20;99.90;;;;;;5039922;28;20041;-89
2022/10/30 08:35:35;;;;;;;41.17;19.10;;;14.30;99.90;;;;;;5037173;28;20053;-84
2022/10/30 08:38:01;;;;;;;32.60;18.25;;;14.30;99.90;;;;;;5035443;28;20149;-84
2022/10/30 08:40:27;;;;;;;40.90;19.60;;;14.40;99.90;;;;;;5034785;28;20068;-86
2022/10/30 08:42:55;;;;;;;32.92;17.77;;;14.50;99.90;;;;;;5035984;28;20046;-82
2022/10/30 08:45:22;;;;;;;33.22;16.90;;;14.60;99.90;;;;;;5015748;28;20061;-83
2022/10/30 08:47:56;;;;;;;34.80;17.13;;;14.60;99.90;;;;;;5014444;28;20092;-85
2022/10/30 08:50:22;;;;;;;30.23;16.88;;;14.70;99.90;;;;;;5014400;28;20057;-87
2022/10/30 08:52:48;;;;;;;35.60;16.88;;;14.80;99.90;;;;;;5000189;28;20405;-82
2022/10/30 08:55:14;;;;;;;36.42;18.33;;;14.80;99.90;;;;;;5000431;28;20049;-87
2022/10/30 08:57:40;;;;;;;28.15;17.65;;;14.90;99.90;;;;;;5017262;28;20085;-81
2022/10/30 09:00:07;;;;;;;32.60;17.55;;;14.90;99.90;;;;;;5016980;28;20564;-84
2022/10/30 09:02:38;;;;;;;33.17;17.70;;;15.00;99.90;;;;;;5033687;28;20145;-81
2022/10/30 09:05:05;;;;;;;30.38;15.45;;;15.10;99.90;;;;;;5000183;28;20042;-89
2022/10/30 09:07:31;;;;;;;33.65;16.33;;;15.20;99.90;;;;;;5035368;28;20607;-86
2022/10/30 09:09:57;;;;;;;36.22;16.63;;;15.30;99.90;;;;;;5017548;28;20119;-82
2022/10/30 09:12:23;;;;;;;33.17;16.60;;;15.40;99.90;;;;;;5019611;28;20080;-84
2022/10/30 09:14:49;;;;;;;29.08;15.73;;;15.50;99.90;;;;;;5036481;28;20059;-84
2022/10/30 09:17:15;;;;;;;32.28;15.77;;;15.50;99.90;;;;;;5036514;28;20104;-85
2022/10/30 09:19:41;;;;;;;27.85;15.27;;;15.60;99.90;;;;;;5018484;28;20397;-83
2022/10/30 09:22:07;;;;;;;30.65;15.93;;;15.60;99.90;;;;;;5017866;28;20064;-85
2022/10/30 09:24:33;;;;;;;29.00;16.20;;;15.60;99.90;;;;;;5033336;28;20050;-83
2022/10/30 09:26:59;;;;;;;37.50;15.70;;;15.70;99.90;;;;;;5015631;28;20072;-85
2022/10/30 09:29:25;;;;;;;28.70;15.35;;;15.70;99.90;;;;;;5031645;28;20059;-82
2022/10/30 09:31:51;;;;;;;36.60;16.67;;;15.80;99.90;;;;;;5015216;28;20049;-81
2022/10/30 09:34:17;;;;;;;29.88;15.18;;;15.80;99.90;;;;;;5001404;28;20060;-90
2022/10/30 09:36:45;;;;;;;29.27;15.43;;;15.80;99.90;;;;;;5041437;28;20053;-88
2022/10/30 09:39:11;;;;;;;30.33;15.63;;;15.80;99.90;;;;;;5036251;28;20100;-81
2022/10/30 09:41:49;;;;;;;30.48;15.55;;;15.90;99.90;;;;;;5035876;28;20061;-85
2022/10/30 09:44:48;;;;;;;35.15;15.68;;;15.90;99.90;;;;;;5032000;28;20041;-82
2022/10/30 09:47:41;;;;;;;44.00;16.30;;;16.00;99.90;;;;;;5031617;28;20045;-84
2022/10/30 09:50:10;;;;;;;33.47;15.88;;;16.10;99.90;;;;;;5014417;28;20053;-86
2022/10/30 09:53:03;;;;;;;33.83;15.65;;;16.20;99.90;;;;;;5034485;28;20042;-87
2022/10/30 09:56:07;;;;;;;26.02;13.88;;;16.30;99.90;;;;;;5032964;28;20497;-83
2022/10/30 09:58:52;;;;;;;28.50;15.88;;;16.40;99.90;;;;;;4915328;29;20512;-83
2022/10/30 10:01:45;;;;;;;27.38;15.27;;;16.50;99.90;;;;;;5024986;28;20053;-82
2022/10/30 10:04:35;;;;;;;27.40;14.55;;;16.60;99.90;;;;;;5012804;28;20789;-84
2022/10/30 10:07:09;;;;;;;33.05;15.70;;;16.80;99.90;;;;;;5031234;28;20045;-81
2022/10/30 10:09:40;;;;;;;29.35;14.38;;;16.90;99.90;;;;;;5032527;28;20053;-87
2022/10/30 10:12:38;;;;;;;32.45;14.75;;;17.00;99.90;;;;;;5017639;28;20061;-83
2022/10/30 10:15:32;;;;;;;28.85;13.10;;;17.00;99.90;;;;;;5027570;28;20042;-84
2022/10/30 10:18:00;;;;;;;27.50;13.23;;;17.10;99.90;;;;;;4996947;28;20049;-85
2022/10/30 10:20:41;;;;;;;25.30;14.38;;;17.20;99.90;;;;;;5035920;28;20475;-82
2022/10/30 10:23:19;;;;;;;28.48;13.30;;;17.30;99.90;;;;;;5035791;28;20140;-86
2022/10/30 10:25:56;;;;;;;23.60;13.07;;;17.40;99.90;;;;;;5018399;28;20085;-83
2022/10/30 10:28:41;;;;;;;28.40;13.25;;;17.50;99.90;;;;;;5018651;28;20484;-84
2022/10/30 10:31:10;;;;;;;26.30;12.27;;;17.60;99.90;;;;;;5019556;28;20818;-86
2022/10/30 10:33:58;;;;;;;27.15;13.50;;;17.70;99.90;;;;;;5019227;28;20131;-83
2022/10/30 10:36:36;;;;;;;23.38;12.52;;;17.90;99.90;;;;;;5017579;28;20144;-80
2022/10/30 10:39:27;;;;;;;24.50;11.95;;;18.00;99.90;;;;;;5017880;28;20048;-83
2022/10/30 10:42:16;;;;;;;27.33;12.50;;;18.30;99.90;;;;;;5034798;28;20053;-89
2022/10/30 10:44:42;;;;;;;28.73;11.50;;;18.30;99.90;;;;;;5035354;28;20523;-88
2022/10/30 10:47:14;;;;;;;24.13;11.45;;;18.50;99.90;;;;;;5016207;28;20053;-84
2022/10/30 10:49:55;;;;;;;23.50;11.40;;;18.60;99.90;;;;;;5033120;28;20494;-84
2022/10/30 10:53:08;;;;;;;21.45;11.32;;;18.70;99.90;;;;;;5017373;28;20448;-84
2022/10/30 10:55:37;;;;;;;22.58;10.55;;;18.90;99.90;;;;;;5009370;28;20144;-86
2022/10/30 10:58:24;;;;;;;20.63;10.32;;;18.90;99.90;;;;;;5033206;28;20104;-84
2022/10/30 11:00:52;;;;;;;20.00;11.15;;;19.00;99.90;;;;;;5032829;28;20106;-82
2022/10/30 11:03:34;;;;;;;21.40;10.15;;;19.10;99.90;;;;;;5033115;28;20434;-84
2022/10/30 11:06:26;;;;;;;20.20;10.20;;;19.20;99.90;;;;;;5015250;28;20068;-82
2022/10/30 11:09:00;;;;;;;22.23;10.75;;;19.30;99.90;;;;;;5033069;28;20052;-84
2022/10/30 11:11:26;;;;;;;23.52;10.63;;;19.40;99.90;;;;;;5015288;28;20057;-82
2022/10/30 11:13:53;;;;;;;20.67;10.48;;;19.60;99.90;;;;;;5033097;28;20049;-82
2022/10/30 11:16:44;;;;;;;18.08;10.70;;;20.10;99.90;;;;;;5015334;28;20050;-82
2022/10/30 11:19:10;;;;;;;21.42;10.07;;;20.70;99.90;;;;;;5015154;28;20053;-83
2022/10/30 11:21:48;;;;;;;19.95;9.00;;;20.90;99.90;;;;;;5014076;28;20386;-86
2022/10/30 11:24:32;;;;;;;24.80;10.30;;;21.10;99.90;;;;;;5033079;28;20055;-82
2022/10/30 11:27:24;;;;;;;18.17;9.75;;;21.50;99.90;;;;;;5032926;28;20057;-86
2022/10/30 11:30:00;;;;;;;17.83;8.98;;;22.10;99.90;;;;;;5019940;28;20132;-81
2022/10/30 11:32:28;;;;;;;21.00;10.88;;;22.30;99.90;;;;;;5032884;28;20489;-83
2022/10/30 11:35:06;;;;;;;18.10;8.13;;;22.70;99.90;;;;;;4998778;28;20124;-84
2022/10/30 11:37:35;;;;;;;24.13;9.27;;;23.20;99.90;;;;;;4999201;28;20089;-82
2022/10/30 11:40:06;;;;;;;20.63;8.82;;;23.60;99.90;;;;;;5033754;28;20060;-82
2022/10/30 11:42:34;;;;;;;24.02;8.90;;;23.70;99.90;;;;;;5017117;28;20064;-85
2022/10/30 11:45:00;;;;;;;21.45;9.82;;;23.60;99.90;;;;;;5033511;28;20053;-83
2022/10/30 11:47:33;;;;;;;18.48;8.70;;;23.70;99.90;;;;;;5033793;28;20065;-86
2022/10/30 11:50:06;;;;;;;16.42;7.93;;;24.20;99.90;;;;;;5014762;28;20584;-81
2022/10/30 11:52:39;;;;;;;16.15;8.15;;;24.50;99.90;;;;;;5014742;28;20521;-82
2022/10/30 11:55:35;;;;;;;18.40;7.80;;;25.00;99.90;;;;;;5016210;28;20061;-81
2022/10/30 11:58:01;;;;;;;17.65;7.60;;;25.10;99.90;;;;;;5038487;28;20049;-83
2022/10/30 12:00:30;;;;;;;17.95;7.13;;;24.80;99.90;;;;;;5033483;28;20551;-83
2022/10/30 12:02:59;;;;;;;16.90;6.85;;;24.50;99.90;;;;;;5033021;28;20056;-82
2022/10/30 12:05:37;;;;;;;14.57;7.13;;;25.00;99.90;;;;;;5015267;28;20045;-84
2022/10/30 12:08:06;;;;;;;20.42;8.45;;;25.70;99.90;;;;;;5015796;28;20053;-84
2022/10/30 12:10:52;;;;;;;18.33;7.45;;;26.20;99.70;;;;;;5015165;28;20561;-83
2022/10/30 12:13:21;;;;;;;17.08;6.70;;;26.50;99.20;;;;;;5030787;28;20061;-85
2022/10/30 12:15:50;;;;;;;17.23;7.30;;;26.70;97.70;;;;;;5032467;28;20057;-85
2022/10/30 12:18:25;;;;;;;23.00;7.05;;;26.70;98.40;;;;;;5031459;28;20053;-82
2022/10/30 12:20:54;;;;;;;14.15;6.53;;;27.00;98.10;;;;;;5032223;28;20136;-81
2022/10/30 12:23:25;;;;;;;14.82;6.50;;;27.10;97.80;;;;;;5031690;28;20073;-81
2022/10/30 12:25:53;;;;;;;13.75;6.35;;;26.50;98.00;;;;;;5031447;28;20133;-81
2022/10/30 12:28:31;;;;;;;17.45;7.22;;;26.40;98.00;;;;;;5013868;28;20053;-83
2022/10/30 12:31:24;;;;;;;15.60;6.65;;;26.50;98.70;;;;;;5033046;28;20494;-84
2022/10/30 12:34:12;;;;;;;13.93;6.57;;;26.70;97.40;;;;;;5032323;28;20401;-82
2022/10/30 12:36:48;;;;;;;19.80;6.15;;;26.90;97.90;;;;;;5032753;28;20387;-85
2022/10/30 12:39:37;;;;;;;16.95;6.07;;;27.60;97.00;;;;;;5032972;28;20049;-85
2022/10/30 12:42:10;;;;;;;17.08;5.85;;;27.80;95.30;;;;;;5032192;28;20505;-85
2022/10/30 12:44:41;;;;;;;16.73;6.83;;;27.70;96.00;;;;;;5031261;28;20056;-88